PWSweather.com
Personal Weather Stations
Station Observations
NORTHPOLE1
Tombur Subdivision, North Pole, AK 99705

Tombur SubdivisionNorth Pole, AK 99705

Lat: 64.774039, Lon: -147.284862

Elevation: 434

Station Type: Davis Vantage Pro 2

http://kl7ac.com

High Low Average
Temperature 0.9°F-17.3°F -9.7°F-23.2°F -4.8°F-20.4°F
Dew Point -2.3°F-19.1°F -13.7°F-25.4°F -8.4°F-22.4°F
Winds Calm Calm Calm Calm Calm Calm
Wind Gusts 2.0 mph3.2 mph -- 0.3 mph0.5 mph
Humidity 86% 82% 84%
Pressure 29.61 in1002.70 in 29.07 in984.40 in -
Precipitation 0.00 in0.00 in - -
Hour Temp Dew Point Humidity Winds Wind Gusts Pressure Precip Precip Rate Daily Precip Total
12:00 AM -1.5°F-18.6°C -4.9°F-20.5°C 85% Calm Calm 1.0 mph1.6 kmh 29.07 in984.4 mb 0.00 in0.0 mm 0.00 in/hr0.0 mm/hr 0.00 in0.0 mm
12:05 AM -1.6°F-18.7°C -5.0°F-20.6°C 85% Calm Calm 2.0 mph3.2 kmh 29.07 in984.4 mb 0.00 in0.0 mm 0.00 in/hr0.0 mm/hr 0.00 in0.0 mm
12:10 AM -1.6°F-18.7°C -5.0°F-20.6°C 85% Calm Calm 2.0 mph3.2 kmh 29.07 in984.4 mb 0.00 in0.0 mm 0.00 in/hr0.0 mm/hr 0.00 in0.0 mm
12:15 AM -1.3°F-18.5°C -4.5°F-20.3°C 86% Calm Calm 1.0 mph1.6 kmh 29.07 in984.4 mb 0.00 in0.0 mm 0.00 in/hr0.0 mm/hr 0.00 in0.0 mm
12:20 AM -1.3°F-18.5°C -4.5°F-20.3°C 86% Calm Calm 1.0 mph1.6 kmh 29.07 in984.4 mb 0.00 in0.0 mm 0.00 in/hr0.0 mm/hr 0.00 in0.0 mm
12:25 AM -1.3°F-18.5°C -4.7°F-20.4°C 85% Calm Calm 1.0 mph1.6 kmh 29.07 in984.4 mb 0.00 in0.0 mm 0.00 in/hr0.0 mm/hr 0.00 in0.0 mm
12:30 AM -1.5°F-18.6°C -4.9°F-20.5°C 85% Calm Calm 1.0 mph1.6 kmh 29.07 in984.4 mb 0.00 in0.0 mm 0.00 in/hr0.0 mm/hr 0.00 in0.0 mm
12:35 AM -1.7°F-18.7°C -5.1°F-20.6°C 85% Calm Calm -- 29.07 in984.4 mb 0.00 in0.0 mm 0.00 in/hr0.0 mm/hr 0.00 in0.0 mm
12:40 AM -1.8°F-18.8°C -5.2°F-20.7°C 85% Calm Calm -- 29.07 in984.4 mb 0.00 in0.0 mm 0.00 in/hr0.0 mm/hr 0.00 in0.0 mm
12:45 AM -1.9°F-18.8°C -5.3°F-20.7°C 85% Calm Calm -- 29.07 in984.4 mb 0.00 in0.0 mm 0.00 in/hr0.0 mm/hr 0.00 in0.0 mm
12:50 AM -1.9°F-18.8°C -5.3°F-20.7°C 85% Calm Calm -- 29.07 in984.4 mb 0.00 in0.0 mm 0.00 in/hr0.0 mm/hr 0.00 in0.0 mm
12:55 AM -1.9°F-18.8°C -5.3°F-20.7°C 85% Calm Calm 1.0 mph1.6 kmh 29.07 in984.4 mb 0.00 in0.0 mm 0.00 in/hr0.0 mm/hr 0.00 in0.0 mm
01:00 AM -2.0°F-18.9°C -5.4°F-20.8°C 85% Calm Calm 1.0 mph1.6 kmh 29.08 in984.8 mb 0.00 in0.0 mm 0.00 in/hr0.0 mm/hr 0.00 in0.0 mm
01:05 AM -1.9°F-18.8°C -5.3°F-20.7°C 85% Calm Calm 1.0 mph1.6 kmh 29.08 in984.8 mb 0.00 in0.0 mm 0.00 in/hr0.0 mm/hr 0.00 in0.0 mm
01:10 AM -1.9°F-18.8°C -5.3°F-20.7°C 85% Calm Calm 1.0 mph1.6 kmh 29.08 in984.8 mb 0.00 in0.0 mm 0.00 in/hr0.0 mm/hr 0.00 in0.0 mm
01:15 AM -1.9°F-18.8°C -5.3°F-20.7°C 85% Calm Calm 1.0 mph1.6 kmh 29.08 in984.8 mb 0.00 in0.0 mm 0.00 in/hr0.0 mm/hr 0.00 in0.0 mm
01:20 AM -2.0°F-18.9°C -5.4°F-20.8°C 85% Calm Calm 1.0 mph1.6 kmh 29.08 in984.8 mb 0.00 in0.0 mm 0.00 in/hr0.0 mm/hr 0.00 in0.0 mm
01:25 AM -2.0°F-18.9°C -5.4°F-20.8°C 85% Calm Calm -- 29.08 in984.8 mb 0.00 in0.0 mm 0.00 in/hr0.0 mm/hr 0.00 in0.0 mm
01:30 AM -2.1°F-18.9°C -5.5°F-20.8°C 85% Calm Calm -- 29.08 in984.8 mb 0.00 in0.0 mm 0.00 in/hr0.0 mm/hr 0.00 in0.0 mm
01:35 AM -2.1°F-18.9°C -5.5°F-20.8°C 85% Calm Calm 1.0 mph1.6 kmh 29.08 in984.8 mb 0.00 in0.0 mm 0.00 in/hr0.0 mm/hr 0.00 in0.0 mm
01:40 AM -2.2°F-19.0°C -5.6°F-20.9°C 85% Calm Calm 1.0 mph1.6 kmh 29.08 in984.8 mb 0.00 in0.0 mm 0.00 in/hr0.0 mm/hr 0.00 in0.0 mm
01:45 AM -2.3°F-19.1°C -5.7°F-20.9°C 85% Calm Calm -- 29.09 in985.1 mb 0.00 in0.0 mm 0.00 in/hr0.0 mm/hr 0.00 in0.0 mm
01:50 AM -2.3°F-19.1°C -5.7°F-20.9°C 85% Calm Calm -- 29.09 in985.1 mb 0.00 in0.0 mm 0.00 in/hr0.0 mm/hr 0.00 in0.0 mm
01:55 AM -2.4°F-19.1°C -5.8°F-21.0°C 85% Calm Calm -- 29.09 in985.1 mb 0.00 in0.0 mm 0.00 in/hr0.0 mm/hr 0.00 in0.0 mm
02:00 AM -2.4°F-19.1°C -5.8°F-21.0°C 85% Calm Calm 1.0 mph1.6 kmh 29.09 in985.1 mb 0.00 in0.0 mm 0.00 in/hr0.0 mm/hr 0.00 in0.0 mm
02:05 AM -2.4°F-19.1°C -5.8°F-21.0°C 85% Calm Calm 1.0 mph1.6 kmh 29.09 in985.1 mb 0.00 in0.0 mm 0.00 in/hr0.0 mm/hr 0.00 in0.0 mm
02:10 AM -2.4°F-19.1°C -5.8°F-21.0°C 85% Calm Calm -- 29.09 in985.1 mb 0.00 in0.0 mm 0.00 in/hr0.0 mm/hr 0.00 in0.0 mm
02:15 AM -2.4°F-19.1°C -5.8°F-21.0°C 85% Calm Calm -- 29.09 in985.1 mb 0.00 in0.0 mm 0.00 in/hr0.0 mm/hr 0.00 in0.0 mm
02:20 AM -2.4°F-19.1°C -5.8°F-21.0°C 85% Calm Calm -- 29.10 in985.4 mb 0.00 in0.0 mm 0.00 in/hr0.0 mm/hr 0.00 in0.0 mm
02:25 AM -2.4°F-19.1°C -5.8°F-21.0°C 85% Calm Calm -- 29.10 in985.4 mb 0.00 in0.0 mm 0.00 in/hr0.0 mm/hr 0.00 in0.0 mm
02:30 AM -2.4°F-19.1°C -5.8°F-21.0°C 85% Calm Calm 1.0 mph1.6 kmh 29.09 in985.1 mb 0.00 in0.0 mm 0.00 in/hr0.0 mm/hr 0.00 in0.0 mm
02:35 AM -2.4°F-19.1°C -5.8°F-21.0°C 85% Calm Calm 1.0 mph1.6 kmh 29.09 in985.1 mb 0.00 in0.0 mm 0.00 in/hr0.0 mm/hr 0.00 in0.0 mm
02:40 AM -2.3°F-19.1°C -5.7°F-20.9°C 85% Calm Calm 1.0 mph1.6 kmh 29.09 in985.1 mb 0.00 in0.0 mm 0.00 in/hr0.0 mm/hr 0.00 in0.0 mm
02:45 AM -2.3°F-19.1°C -5.7°F-20.9°C 85% Calm Calm 1.0 mph1.6 kmh 29.09 in985.1 mb 0.00 in0.0 mm 0.00 in/hr0.0 mm/hr 0.00 in0.0 mm
02:50 AM -2.3°F-19.1°C -5.7°F-20.9°C 85% Calm Calm 1.0 mph1.6 kmh 29.09 in985.1 mb 0.00 in0.0 mm 0.00 in/hr0.0 mm/hr 0.00 in0.0 mm
02:55 AM -2.3°F-19.1°C -5.7°F-20.9°C 85% Calm Calm 1.0 mph1.6 kmh 29.09 in985.1 mb 0.00 in0.0 mm 0.00 in/hr0.0 mm/hr 0.00 in0.0 mm
03:00 AM -2.3°F-19.1°C -5.7°F-20.9°C 85% Calm Calm 1.0 mph1.6 kmh 29.09 in985.1 mb 0.00 in0.0 mm 0.00 in/hr0.0 mm/hr 0.00 in0.0 mm
03:05 AM -2.2°F-19.0°C -5.6°F-20.9°C 85% Calm Calm 1.0 mph1.6 kmh 29.09 in985.1 mb 0.00 in0.0 mm 0.00 in/hr0.0 mm/hr 0.00 in0.0 mm
03:10 AM -2.1°F-18.9°C -5.5°F-20.8°C 85% Calm Calm 1.0 mph1.6 kmh 29.09 in985.1 mb 0.00 in0.0 mm 0.00 in/hr0.0 mm/hr 0.00 in0.0 mm
03:15 AM -2.1°F-18.9°C -5.5°F-20.8°C 85% Calm Calm -- 29.09 in985.1 mb 0.00 in0.0 mm 0.00 in/hr0.0 mm/hr 0.00 in0.0 mm
03:20 AM -1.9°F-18.8°C -5.3°F-20.7°C 85% Calm Calm -- 29.09 in985.1 mb 0.00 in0.0 mm 0.00 in/hr0.0 mm/hr 0.00 in0.0 mm
03:25 AM -1.9°F-18.8°C -5.3°F-20.7°C 85% Calm Calm -- 29.09 in985.1 mb 0.00 in0.0 mm 0.00 in/hr0.0 mm/hr 0.00 in0.0 mm
03:30 AM -1.8°F-18.8°C -5.2°F-20.7°C 85% Calm Calm -- 29.09 in985.1 mb 0.00 in0.0 mm 0.00 in/hr0.0 mm/hr 0.00 in0.0 mm
03:35 AM -1.7°F-18.7°C -5.1°F-20.6°C 85% Calm Calm -- 29.09 in985.1 mb 0.00 in0.0 mm 0.00 in/hr0.0 mm/hr 0.00 in0.0 mm
03:40 AM -1.6°F-18.7°C -5.0°F-20.6°C 85% Calm Calm -- 29.09 in985.1 mb 0.00 in0.0 mm 0.00 in/hr0.0 mm/hr 0.00 in0.0 mm
03:45 AM -1.6°F-18.7°C -5.0°F-20.6°C 85% Calm Calm -- 29.09 in985.1 mb 0.00 in0.0 mm 0.00 in/hr0.0 mm/hr 0.00 in0.0 mm
03:50 AM -1.5°F-18.6°C -4.9°F-20.5°C 85% Calm Calm -- 29.09 in985.1 mb 0.00 in0.0 mm 0.00 in/hr0.0 mm/hr 0.00 in0.0 mm
03:55 AM -1.4°F-18.6°C -4.8°F-20.4°C 85% Calm Calm -- 29.10 in985.4 mb 0.00 in0.0 mm 0.00 in/hr0.0 mm/hr 0.00 in0.0 mm
04:00 AM -1.4°F-18.6°C -4.6°F-20.3°C 86% Calm Calm -- 29.10 in985.4 mb 0.00 in0.0 mm 0.00 in/hr0.0 mm/hr 0.00 in0.0 mm
04:05 AM -1.3°F-18.5°C -4.5°F-20.3°C 86% Calm Calm -- 29.10 in985.4 mb 0.00 in0.0 mm 0.00 in/hr0.0 mm/hr 0.00 in0.0 mm
04:10 AM -1.3°F-18.5°C -4.7°F-20.4°C 85% Calm Calm -- 29.10 in985.4 mb 0.00 in0.0 mm 0.00 in/hr0.0 mm/hr 0.00 in0.0 mm
04:15 AM -1.2°F-18.4°C -4.4°F-20.2°C 86% Calm Calm -- 29.10 in985.4 mb 0.00 in0.0 mm 0.00 in/hr0.0 mm/hr 0.00 in0.0 mm
04:20 AM -1.1°F-18.4°C -4.3°F-20.2°C 86% Calm Calm -- 29.10 in985.4 mb 0.00 in0.0 mm 0.00 in/hr0.0 mm/hr 0.00 in0.0 mm
04:25 AM -1.0°F-18.3°C -4.2°F-20.1°C 86% Calm Calm -- 29.10 in985.4 mb 0.00 in0.0 mm 0.00 in/hr0.0 mm/hr 0.00 in0.0 mm
04:30 AM -0.9°F-18.3°C -4.1°F-20.1°C 86% Calm Calm -- 29.10 in985.4 mb 0.00 in0.0 mm 0.00 in/hr0.0 mm/hr 0.00 in0.0 mm
04:35 AM -0.8°F-18.2°C -4.0°F-20.0°C 86% Calm Calm -- 29.10 in985.4 mb 0.00 in0.0 mm 0.00 in/hr0.0 mm/hr 0.00 in0.0 mm
04:40 AM -0.6°F-18.1°C -3.8°F-19.9°C 86% Calm Calm -- 29.10 in985.4 mb 0.00 in0.0 mm 0.00 in/hr0.0 mm/hr 0.00 in0.0 mm
04:45 AM -0.4°F-18.0°C -3.6°F-19.8°C 86% Calm Calm 1.0 mph1.6 kmh 29.11 in985.8 mb 0.00 in0.0 mm 0.00 in/hr0.0 mm/hr 0.00 in0.0 mm
04:50 AM -0.3°F-17.9°C -3.5°F-19.7°C 86% Calm Calm 2.0 mph3.2 kmh 29.11 in985.8 mb 0.00 in0.0 mm 0.00 in/hr0.0 mm/hr 0.00 in0.0 mm
04:55 AM -0.1°F-17.8°C -3.3°F-19.6°C 86% Calm Calm 2.0 mph3.2 kmh 29.11 in985.8 mb 0.00 in0.0 mm 0.00 in/hr0.0 mm/hr 0.00 in0.0 mm
05:00 AM 0.0°F-17.8°C -3.2°F-19.6°C 86% Calm Calm 1.0 mph1.6 kmh 29.11 in985.8 mb 0.00 in0.0 mm 0.00 in/hr0.0 mm/hr 0.00 in0.0 mm
05:05 AM 0.2°F-17.7°C -3.0°F-19.4°C 86% Calm Calm 1.0 mph1.6 kmh 29.11 in985.8 mb 0.00 in0.0 mm 0.00 in/hr0.0 mm/hr 0.00 in0.0 mm
05:10 AM 0.4°F-17.6°C -2.8°F-19.3°C 86% Calm Calm 1.0 mph1.6 kmh 29.11 in985.8 mb 0.00 in0.0 mm 0.00 in/hr0.0 mm/hr 0.00 in0.0 mm
05:15 AM 0.5°F-17.5°C -2.7°F-19.3°C 86% Calm Calm 1.0 mph1.6 kmh 29.11 in985.8 mb 0.00 in0.0 mm 0.00 in/hr0.0 mm/hr 0.00 in0.0 mm
05:20 AM 0.6°F-17.4°C -2.6°F-19.2°C 86% Calm Calm -- 29.11 in985.8 mb 0.00 in0.0 mm 0.00 in/hr0.0 mm/hr 0.00 in0.0 mm
05:25 AM 0.7°F-17.4°C -2.5°F-19.2°C 86% Calm Calm -- 29.11 in985.8 mb 0.00 in0.0 mm 0.00 in/hr0.0 mm/hr 0.00 in0.0 mm
05:30 AM 0.8°F-17.3°C -2.4°F-19.1°C 86% Calm Calm -- 29.12 in986.1 mb 0.00 in0.0 mm 0.00 in/hr0.0 mm/hr 0.00 in0.0 mm
05:35 AM 0.8°F-17.3°C -2.4°F-19.1°C 86% Calm Calm 1.0 mph1.6 kmh 29.12 in986.1 mb 0.00 in0.0 mm 0.00 in/hr0.0 mm/hr 0.00 in0.0 mm
05:40 AM 0.9°F-17.3°C -2.3°F-19.1°C 86% Calm Calm 2.0 mph3.2 kmh 29.12 in986.1 mb 0.00 in0.0 mm 0.00 in/hr0.0 mm/hr 0.00 in0.0 mm
05:45 AM 0.9°F-17.3°C -2.3°F-19.1°C 86% Calm Calm 2.0 mph3.2 kmh 29.12 in986.1 mb 0.00 in0.0 mm 0.00 in/hr0.0 mm/hr 0.00 in0.0 mm
05:50 AM 0.9°F-17.3°C -2.3°F-19.1°C 86% Calm Calm 1.0 mph1.6 kmh 29.12 in986.1 mb 0.00 in0.0 mm 0.00 in/hr0.0 mm/hr 0.00 in0.0 mm
05:55 AM 0.9°F-17.3°C -2.3°F-19.1°C 86% Calm Calm -- 29.12 in986.1 mb 0.00 in0.0 mm 0.00 in/hr0.0 mm/hr 0.00 in0.0 mm
06:00 AM 0.9°F-17.3°C -2.3°F-19.1°C 86% Calm Calm -- 29.12 in986.1 mb 0.00 in0.0 mm 0.00 in/hr0.0 mm/hr 0.00 in0.0 mm
06:05 AM 0.8°F-17.3°C -2.4°F-19.1°C 86% Calm Calm -- 29.13 in986.5 mb 0.00 in0.0 mm 0.00 in/hr0.0 mm/hr 0.00 in0.0 mm
06:10 AM 0.7°F-17.4°C -2.5°F-19.2°C 86% Calm Calm -- 29.12 in986.1 mb 0.00 in0.0 mm 0.00 in/hr0.0 mm/hr 0.00 in0.0 mm
06:15 AM 0.6°F-17.4°C -2.6°F-19.2°C 86% Calm Calm -- 29.13 in986.5 mb 0.00 in0.0 mm 0.00 in/hr0.0 mm/hr 0.00 in0.0 mm
06:20 AM 0.5°F-17.5°C -2.7°F-19.3°C 86% Calm Calm -- 29.13 in986.5 mb 0.00 in0.0 mm 0.00 in/hr0.0 mm/hr 0.00 in0.0 mm
06:25 AM 0.4°F-17.6°C -2.8°F-19.3°C 86% Calm Calm -- 29.13 in986.5 mb 0.00 in0.0 mm 0.00 in/hr0.0 mm/hr 0.00 in0.0 mm
06:30 AM 0.3°F-17.6°C -3.1°F-19.5°C 85% Calm Calm -- 29.13 in986.5 mb 0.00 in0.0 mm 0.00 in/hr0.0 mm/hr 0.00 in0.0 mm
06:35 AM 0.1°F-17.7°C -3.3°F-19.6°C 85% Calm Calm -- 29.13 in986.5 mb 0.00 in0.0 mm 0.00 in/hr0.0 mm/hr 0.00 in0.0 mm
06:40 AM 0.0°F-17.8°C -3.4°F-19.7°C 85% Calm Calm -- 29.13 in986.5 mb 0.00 in0.0 mm 0.00 in/hr0.0 mm/hr 0.00 in0.0 mm
06:45 AM 0.0°F-17.8°C -3.4°F-19.7°C 85% Calm Calm -- 29.13 in986.5 mb 0.00 in0.0 mm 0.00 in/hr0.0 mm/hr 0.00 in0.0 mm
06:50 AM -0.1°F-17.8°C -3.5°F-19.7°C 85% Calm Calm -- 29.14 in986.8 mb 0.00 in0.0 mm 0.00 in/hr0.0 mm/hr 0.00 in0.0 mm
06:55 AM -0.2°F-17.9°C -3.6°F-19.8°C 85% Calm Calm -- 29.14 in986.8 mb 0.00 in0.0 mm 0.00 in/hr0.0 mm/hr 0.00 in0.0 mm
07:00 AM -0.4°F-18.0°C -3.8°F-19.9°C 85% Calm Calm 1.0 mph1.6 kmh 29.14 in986.8 mb 0.00 in0.0 mm 0.00 in/hr0.0 mm/hr 0.00 in0.0 mm
07:05 AM -0.5°F-18.1°C -3.9°F-19.9°C 85% Calm Calm 1.0 mph1.6 kmh 29.14 in986.8 mb 0.00 in0.0 mm 0.00 in/hr0.0 mm/hr 0.00 in0.0 mm
07:10 AM -0.6°F-18.1°C -4.0°F-20.0°C 85% Calm Calm -- 29.14 in986.8 mb 0.00 in0.0 mm 0.00 in/hr0.0 mm/hr 0.00 in0.0 mm
07:15 AM -0.7°F-18.2°C -4.1°F-20.1°C 85% Calm Calm -- 29.15 in987.1 mb 0.00 in0.0 mm 0.00 in/hr0.0 mm/hr 0.00 in0.0 mm
07:20 AM -0.7°F-18.2°C -4.1°F-20.1°C 85% Calm Calm -- 29.15 in987.1 mb 0.00 in0.0 mm 0.00 in/hr0.0 mm/hr 0.00 in0.0 mm
07:25 AM -0.8°F-18.2°C -4.2°F-20.1°C 85% Calm Calm 1.0 mph1.6 kmh 29.15 in987.1 mb 0.00 in0.0 mm 0.00 in/hr0.0 mm/hr 0.00 in0.0 mm
07:30 AM -0.8°F-18.2°C -4.2°F-20.1°C 85% Calm Calm 1.0 mph1.6 kmh 29.15 in987.1 mb 0.00 in0.0 mm 0.00 in/hr0.0 mm/hr 0.00 in0.0 mm
07:35 AM -0.8°F-18.2°C -4.2°F-20.1°C 85% Calm Calm 1.0 mph1.6 kmh 29.16 in987.5 mb 0.00 in0.0 mm 0.00 in/hr0.0 mm/hr 0.00 in0.0 mm
07:40 AM -0.8°F-18.2°C -4.2°F-20.1°C 85% Calm Calm 1.0 mph1.6 kmh 29.16 in987.5 mb 0.00 in0.0 mm 0.00 in/hr0.0 mm/hr 0.00 in0.0 mm
07:45 AM -0.8°F-18.2°C -4.2°F-20.1°C 85% Calm Calm 1.0 mph1.6 kmh 29.16 in987.5 mb 0.00 in0.0 mm 0.00 in/hr0.0 mm/hr 0.00 in0.0 mm
07:50 AM -0.7°F-18.2°C -3.9°F-19.9°C 86% Calm Calm 2.0 mph3.2 kmh 29.16 in987.5 mb 0.00 in0.0 mm 0.00 in/hr0.0 mm/hr 0.00 in0.0 mm
07:55 AM -0.7°F-18.2°C -3.9°F-19.9°C 86% Calm Calm 2.0 mph3.2 kmh 29.16 in987.5 mb 0.00 in0.0 mm 0.00 in/hr0.0 mm/hr 0.00 in0.0 mm
08:00 AM -0.8°F-18.2°C -4.2°F-20.1°C 85% Calm Calm -- 29.17 in987.8 mb 0.00 in0.0 mm 0.00 in/hr0.0 mm/hr 0.00 in0.0 mm
08:05 AM -0.8°F-18.2°C -4.2°F-20.1°C 85% Calm Calm -- 29.17 in987.8 mb 0.00 in0.0 mm 0.00 in/hr0.0 mm/hr 0.00 in0.0 mm
08:10 AM -0.9°F-18.3°C -4.3°F-20.2°C 85% Calm Calm 1.0 mph1.6 kmh 29.17 in987.8 mb 0.00 in0.0 mm 0.00 in/hr0.0 mm/hr 0.00 in0.0 mm
08:15 AM -1.0°F-18.3°C -4.4°F-20.2°C 85% Calm Calm 1.0 mph1.6 kmh 29.17 in987.8 mb 0.00 in0.0 mm 0.00 in/hr0.0 mm/hr 0.00 in0.0 mm
08:20 AM -1.0°F-18.3°C -4.4°F-20.2°C 85% Calm Calm 1.0 mph1.6 kmh 29.17 in987.8 mb 0.00 in0.0 mm 0.00 in/hr0.0 mm/hr 0.00 in0.0 mm
08:25 AM -1.0°F-18.3°C -4.4°F-20.2°C 85% Calm Calm 1.0 mph1.6 kmh 29.17 in987.8 mb 0.00 in0.0 mm 0.00 in/hr0.0 mm/hr 0.00 in0.0 mm
08:30 AM -1.1°F-18.4°C -4.5°F-20.3°C 85% Calm Calm -- 29.18 in988.1 mb 0.00 in0.0 mm 0.00 in/hr0.0 mm/hr 0.00 in0.0 mm
08:35 AM -1.1°F-18.4°C -4.5°F-20.3°C 85% Calm Calm -- 29.18 in988.1 mb 0.00 in0.0 mm 0.00 in/hr0.0 mm/hr 0.00 in0.0 mm
08:40 AM -1.0°F-18.3°C -4.4°F-20.2°C 85% Calm Calm 1.0 mph1.6 kmh 29.18 in988.1 mb 0.00 in0.0 mm 0.00 in/hr0.0 mm/hr 0.00 in0.0 mm
08:45 AM -1.0°F-18.3°C -4.4°F-20.2°C 85% Calm Calm 1.0 mph1.6 kmh 29.18 in988.1 mb 0.00 in0.0 mm 0.00 in/hr0.0 mm/hr 0.00 in0.0 mm
08:50 AM -1.1°F-18.4°C -4.5°F-20.3°C 85% Calm Calm 1.0 mph1.6 kmh 29.19 in988.5 mb 0.00 in0.0 mm 0.00 in/hr0.0 mm/hr 0.00 in0.0 mm
08:55 AM -1.1°F-18.4°C -4.5°F-20.3°C 85% Calm Calm 1.0 mph1.6 kmh 29.19 in988.5 mb 0.00 in0.0 mm 0.00 in/hr0.0 mm/hr 0.00 in0.0 mm
09:00 AM -1.1°F-18.4°C -4.5°F-20.3°C 85% Calm Calm 1.0 mph1.6 kmh 29.19 in988.5 mb 0.00 in0.0 mm 0.00 in/hr0.0 mm/hr 0.00 in0.0 mm
09:05 AM -1.2°F-18.4°C -4.6°F-20.3°C 85% Calm Calm -- 29.19 in988.5 mb 0.00 in0.0 mm 0.00 in/hr0.0 mm/hr 0.00 in0.0 mm
09:10 AM -1.2°F-18.4°C -4.6°F-20.3°C 85% Calm Calm 1.0 mph1.6 kmh 29.20 in988.8 mb 0.00 in0.0 mm 0.00 in/hr0.0 mm/hr 0.00 in0.0 mm
09:15 AM -1.3°F-18.5°C -4.7°F-20.4°C 85% Calm Calm 1.0 mph1.6 kmh 29.20 in988.8 mb 0.00 in0.0 mm 0.00 in/hr0.0 mm/hr 0.00 in0.0 mm
09:20 AM -1.4°F-18.6°C -4.8°F-20.4°C 85% Calm Calm 1.0 mph1.6 kmh 29.20 in988.8 mb 0.00 in0.0 mm 0.00 in/hr0.0 mm/hr 0.00 in0.0 mm
09:25 AM -1.5°F-18.6°C -4.9°F-20.5°C 85% Calm Calm 2.0 mph3.2 kmh 29.20 in988.8 mb 0.00 in0.0 mm 0.00 in/hr0.0 mm/hr 0.00 in0.0 mm
09:30 AM -1.6°F-18.7°C -5.0°F-20.6°C 85% Calm Calm 2.0 mph3.2 kmh 29.20 in988.8 mb 0.00 in0.0 mm 0.00 in/hr0.0 mm/hr 0.00 in0.0 mm
09:35 AM -1.8°F-18.8°C -5.2°F-20.7°C 85% Calm Calm 1.0 mph1.6 kmh 29.21 in989.2 mb 0.00 in0.0 mm 0.00 in/hr0.0 mm/hr 0.00 in0.0 mm
09:40 AM -1.9°F-18.8°C -5.3°F-20.7°C 85% Calm Calm 1.0 mph1.6 kmh 29.21 in989.2 mb 0.00 in0.0 mm 0.00 in/hr0.0 mm/hr 0.00 in0.0 mm
09:45 AM -2.1°F-18.9°C -5.7°F-20.9°C 84% Calm Calm -- 29.21 in989.2 mb 0.00 in0.0 mm 0.00 in/hr0.0 mm/hr 0.00 in0.0 mm
09:50 AM -2.2°F-19.0°C -5.6°F-20.9°C 85% Calm Calm -- 29.21 in989.2 mb 0.00 in0.0 mm 0.00 in/hr0.0 mm/hr 0.00 in0.0 mm
09:55 AM -2.4°F-19.1°C -6.0°F-21.1°C 84% Calm Calm -- 29.22 in989.5 mb 0.00 in0.0 mm 0.00 in/hr0.0 mm/hr 0.00 in0.0 mm
10:00 AM -2.6°F-19.2°C -6.2°F-21.2°C 84% Calm Calm -- 29.22 in989.5 mb 0.00 in0.0 mm 0.00 in/hr0.0 mm/hr 0.00 in0.0 mm
10:05 AM -2.7°F-19.3°C -6.3°F-21.3°C 84% Calm Calm -- 29.22 in989.5 mb 0.00 in0.0 mm 0.00 in/hr0.0 mm/hr 0.00 in0.0 mm
10:10 AM -2.8°F-19.3°C -6.4°F-21.3°C 84% Calm Calm -- 29.22 in989.5 mb 0.00 in0.0 mm 0.00 in/hr0.0 mm/hr 0.00 in0.0 mm
10:15 AM -3.0°F-19.4°C -6.6°F-21.4°C 84% Calm Calm -- 29.23 in989.8 mb 0.00 in0.0 mm 0.00 in/hr0.0 mm/hr 0.00 in0.0 mm
10:20 AM -3.2°F-19.6°C -6.8°F-21.6°C 84% Calm Calm 1.0 mph1.6 kmh 29.23 in989.8 mb 0.00 in0.0 mm 0.00 in/hr0.0 mm/hr 0.00 in0.0 mm
10:25 AM -3.4°F-19.7°C -7.0°F-21.7°C 84% Calm Calm 1.0 mph1.6 kmh 29.23 in989.8 mb 0.00 in0.0 mm 0.00 in/hr0.0 mm/hr 0.00 in0.0 mm
10:30 AM -3.5°F-19.7°C -7.1°F-21.7°C 84% Calm Calm -- 29.24 in990.2 mb 0.00 in0.0 mm 0.00 in/hr0.0 mm/hr 0.00 in0.0 mm
10:35 AM -3.6°F-19.8°C -7.2°F-21.8°C 84% Calm Calm -- 29.24 in990.2 mb 0.00 in0.0 mm 0.00 in/hr0.0 mm/hr 0.00 in0.0 mm
10:40 AM -3.7°F-19.8°C -7.3°F-21.8°C 84% Calm Calm 1.0 mph1.6 kmh 29.24 in990.2 mb 0.00 in0.0 mm 0.00 in/hr0.0 mm/hr 0.00 in0.0 mm
10:45 AM -3.7°F-19.8°C -7.3°F-21.8°C 84% Calm Calm 1.0 mph1.6 kmh 29.24 in990.2 mb 0.00 in0.0 mm 0.00 in/hr0.0 mm/hr 0.00 in0.0 mm
10:50 AM -3.9°F-19.9°C -7.5°F-21.9°C 84% Calm Calm -- 29.25 in990.5 mb 0.00 in0.0 mm 0.00 in/hr0.0 mm/hr 0.00 in0.0 mm
10:55 AM -4.0°F-20.0°C -7.6°F-22.0°C 84% Calm Calm -- 29.25 in990.5 mb 0.00 in0.0 mm 0.00 in/hr0.0 mm/hr 0.00 in0.0 mm
11:00 AM -4.1°F-20.1°C -7.7°F-22.1°C 84% Calm Calm -- 29.26 in990.9 mb 0.00 in0.0 mm 0.00 in/hr0.0 mm/hr 0.00 in0.0 mm
11:05 AM -4.2°F-20.1°C -7.8°F-22.1°C 84% Calm Calm -- 29.26 in990.9 mb 0.00 in0.0 mm 0.00 in/hr0.0 mm/hr 0.00 in0.0 mm
11:10 AM -4.2°F-20.1°C -7.8°F-22.1°C 84% Calm Calm -- 29.26 in990.9 mb 0.00 in0.0 mm 0.00 in/hr0.0 mm/hr 0.00 in0.0 mm
11:15 AM -4.4°F-20.2°C -8.0°F-22.2°C 84% Calm Calm -- 29.26 in990.9 mb 0.00 in0.0 mm 0.00 in/hr0.0 mm/hr 0.00 in0.0 mm
11:20 AM -4.4°F-20.2°C -8.0°F-22.2°C 84% Calm Calm -- 29.26 in990.9 mb 0.00 in0.0 mm 0.00 in/hr0.0 mm/hr 0.00 in0.0 mm
11:25 AM -4.6°F-20.3°C -8.2°F-22.3°C 84% Calm Calm -- 29.27 in991.2 mb 0.00 in0.0 mm 0.00 in/hr0.0 mm/hr 0.00 in0.0 mm
11:30 AM -4.7°F-20.4°C -8.5°F-22.5°C 83% Calm Calm -- 29.27 in991.2 mb 0.00 in0.0 mm 0.00 in/hr0.0 mm/hr 0.00 in0.0 mm
11:35 AM -4.9°F-20.5°C -8.7°F-22.6°C 83% Calm Calm -- 29.28 in991.5 mb 0.00 in0.0 mm 0.00 in/hr0.0 mm/hr 0.00 in0.0 mm
11:40 AM -5.0°F-20.6°C -8.8°F-22.7°C 83% Calm Calm -- 29.28 in991.5 mb 0.00 in0.0 mm 0.00 in/hr0.0 mm/hr 0.00 in0.0 mm
11:45 AM -5.1°F-20.6°C -8.9°F-22.7°C 83% Calm Calm -- 29.28 in991.5 mb 0.00 in0.0 mm 0.00 in/hr0.0 mm/hr 0.00 in0.0 mm
11:50 AM -5.3°F-20.7°C -9.1°F-22.8°C 83% Calm Calm -- 29.28 in991.5 mb 0.00 in0.0 mm 0.00 in/hr0.0 mm/hr 0.00 in0.0 mm
11:55 AM -5.3°F-20.7°C -9.1°F-22.8°C 83% Calm Calm -- 29.28 in991.5 mb 0.00 in0.0 mm 0.00 in/hr0.0 mm/hr 0.00 in0.0 mm
12:00 PM -5.4°F-20.8°C -9.2°F-22.9°C 83% Calm Calm -- 29.28 in991.5 mb 0.00 in0.0 mm 0.00 in/hr0.0 mm/hr 0.00 in0.0 mm
12:05 PM -5.5°F-20.8°C -9.3°F-22.9°C 83% Calm Calm -- 29.29 in991.9 mb 0.00 in0.0 mm 0.00 in/hr0.0 mm/hr 0.00 in0.0 mm
12:10 PM -5.6°F-20.9°C -9.4°F-23.0°C 83% Calm Calm -- 29.29 in991.9 mb 0.00 in0.0 mm 0.00 in/hr0.0 mm/hr 0.00 in0.0 mm
12:15 PM -5.7°F-20.9°C -9.5°F-23.1°C 83% Calm Calm -- 29.29 in991.9 mb 0.00 in0.0 mm 0.00 in/hr0.0 mm/hr 0.00 in0.0 mm
12:20 PM -5.8°F-21.0°C -9.6°F-23.1°C 83% Calm Calm -- 29.29 in991.9 mb 0.00 in0.0 mm 0.00 in/hr0.0 mm/hr 0.00 in0.0 mm
12:25 PM -5.9°F-21.1°C -9.7°F-23.2°C 83% Calm Calm -- 29.30 in992.2 mb 0.00 in0.0 mm 0.00 in/hr0.0 mm/hr 0.00 in0.0 mm
12:30 PM -6.0°F-21.1°C -9.8°F-23.2°C 83% Calm Calm -- 29.30 in992.2 mb 0.00 in0.0 mm 0.00 in/hr0.0 mm/hr 0.00 in0.0 mm
12:35 PM -6.0°F-21.1°C -9.8°F-23.2°C 83% Calm Calm -- 29.30 in992.2 mb 0.00 in0.0 mm 0.00 in/hr0.0 mm/hr 0.00 in0.0 mm
12:40 PM -6.1°F-21.2°C -9.9°F-23.3°C 83% Calm Calm 1.0 mph1.6 kmh 29.30 in992.2 mb 0.00 in0.0 mm 0.00 in/hr0.0 mm/hr 0.00 in0.0 mm
12:45 PM -6.1°F-21.2°C -9.9°F-23.3°C 83% Calm Calm 1.0 mph1.6 kmh 29.31 in992.6 mb 0.00 in0.0 mm 0.00 in/hr0.0 mm/hr 0.00 in0.0 mm
12:50 PM -6.1°F-21.2°C -9.9°F-23.3°C 83% Calm Calm 1.0 mph1.6 kmh 29.31 in992.6 mb 0.00 in0.0 mm 0.00 in/hr0.0 mm/hr 0.00 in0.0 mm
12:55 PM -6.0°F-21.1°C -9.6°F-23.1°C 84% Calm Calm -- 29.31 in992.6 mb 0.00 in0.0 mm 0.00 in/hr0.0 mm/hr 0.00 in0.0 mm
01:00 PM -6.0°F-21.1°C -9.8°F-23.2°C 83% Calm Calm -- 29.31 in992.6 mb 0.00 in0.0 mm 0.00 in/hr0.0 mm/hr 0.00 in0.0 mm
01:05 PM -6.0°F-21.1°C -9.6°F-23.1°C 84% Calm Calm 1.0 mph1.6 kmh 29.31 in992.6 mb 0.00 in0.0 mm 0.00 in/hr0.0 mm/hr 0.00 in0.0 mm
01:10 PM -6.1°F-21.2°C -9.9°F-23.3°C 83% Calm Calm 1.0 mph1.6 kmh 29.31 in992.6 mb 0.00 in0.0 mm 0.00 in/hr0.0 mm/hr 0.00 in0.0 mm
01:15 PM -6.1°F-21.2°C -9.9°F-23.3°C 83% Calm Calm -- 29.32 in992.9 mb 0.00 in0.0 mm 0.00 in/hr0.0 mm/hr 0.00 in0.0 mm
01:20 PM -6.1°F-21.2°C -9.9°F-23.3°C 83% Calm Calm -- 29.32 in992.9 mb 0.00 in0.0 mm 0.00 in/hr0.0 mm/hr 0.00 in0.0 mm
01:25 PM -6.2°F-21.2°C -10.0°F-23.3°C 83% Calm Calm -- 29.32 in992.9 mb 0.00 in0.0 mm 0.00 in/hr0.0 mm/hr 0.00 in0.0 mm
01:30 PM -6.2°F-21.2°C -10.0°F-23.3°C 83% Calm Calm -- 29.32 in992.9 mb 0.00 in0.0 mm 0.00 in/hr0.0 mm/hr 0.00 in0.0 mm
01:35 PM -6.2°F-21.2°C -10.0°F-23.3°C 83% Calm Calm -- 29.33 in993.2 mb 0.00 in0.0 mm 0.00 in/hr0.0 mm/hr 0.00 in0.0 mm
01:40 PM -6.3°F-21.3°C -10.1°F-23.4°C 83% Calm Calm -- 29.33 in993.2 mb 0.00 in0.0 mm 0.00 in/hr0.0 mm/hr 0.00 in0.0 mm
01:45 PM -6.3°F-21.3°C -10.1°F-23.4°C 83% Calm Calm -- 29.33 in993.2 mb 0.00 in0.0 mm 0.00 in/hr0.0 mm/hr 0.00 in0.0 mm
01:50 PM -6.3°F-21.3°C -10.1°F-23.4°C 83% Calm Calm -- 29.33 in993.2 mb 0.00 in0.0 mm 0.00 in/hr0.0 mm/hr 0.00 in0.0 mm
01:55 PM -6.3°F-21.3°C -10.1°F-23.4°C 83% Calm Calm -- 29.33 in993.2 mb 0.00 in0.0 mm 0.00 in/hr0.0 mm/hr 0.00 in0.0 mm
02:00 PM -6.3°F-21.3°C -10.1°F-23.4°C 83% Calm Calm -- 29.33 in993.2 mb 0.00 in0.0 mm 0.00 in/hr0.0 mm/hr 0.00 in0.0 mm
02:05 PM -6.4°F-21.3°C -10.2°F-23.4°C 83% Calm Calm -- 29.33 in993.2 mb 0.00 in0.0 mm 0.00 in/hr0.0 mm/hr 0.00 in0.0 mm
02:10 PM -6.5°F-21.4°C -10.3°F-23.5°C 83% Calm Calm -- 29.34 in993.6 mb 0.00 in0.0 mm 0.00 in/hr0.0 mm/hr 0.00 in0.0 mm
02:15 PM -6.5°F-21.4°C -10.3°F-23.5°C 83% Calm Calm -- 29.34 in993.6 mb 0.00 in0.0 mm 0.00 in/hr0.0 mm/hr 0.00 in0.0 mm
02:20 PM -6.6°F-21.4°C -10.4°F-23.6°C 83% Calm Calm -- 29.34 in993.6 mb 0.00 in0.0 mm 0.00 in/hr0.0 mm/hr 0.00 in0.0 mm
02:25 PM -6.6°F-21.4°C -10.4°F-23.6°C 83% Calm Calm -- 29.34 in993.6 mb 0.00 in0.0 mm 0.00 in/hr0.0 mm/hr 0.00 in0.0 mm
02:30 PM -6.7°F-21.5°C -10.5°F-23.6°C 83% Calm Calm -- 29.34 in993.6 mb 0.00 in0.0 mm 0.00 in/hr0.0 mm/hr 0.00 in0.0 mm
02:35 PM -6.7°F-21.5°C -10.5°F-23.6°C 83% Calm Calm -- 29.35 in993.9 mb 0.00 in0.0 mm 0.00 in/hr0.0 mm/hr 0.00 in0.0 mm
02:40 PM -6.7°F-21.5°C -10.5°F-23.6°C 83% Calm Calm -- 29.35 in993.9 mb 0.00 in0.0 mm 0.00 in/hr0.0 mm/hr 0.00 in0.0 mm
02:45 PM -6.8°F-21.6°C -10.6°F-23.7°C 83% Calm Calm -- 29.35 in993.9 mb 0.00 in0.0 mm 0.00 in/hr0.0 mm/hr 0.00 in0.0 mm
02:50 PM -6.8°F-21.6°C -10.6°F-23.7°C 83% Calm Calm -- 29.36 in994.2 mb 0.00 in0.0 mm 0.00 in/hr0.0 mm/hr 0.00 in0.0 mm
02:55 PM -6.8°F-21.6°C -10.6°F-23.7°C 83% Calm Calm -- 29.36 in994.2 mb 0.00 in0.0 mm 0.00 in/hr0.0 mm/hr 0.00 in0.0 mm
03:00 PM -6.9°F-21.6°C -10.7°F-23.7°C 83% Calm Calm -- 29.36 in994.2 mb 0.00 in0.0 mm 0.00 in/hr0.0 mm/hr 0.00 in0.0 mm
03:05 PM -7.0°F-21.7°C -10.8°F-23.8°C 83% Calm Calm -- 29.36 in994.2 mb 0.00 in0.0 mm 0.00 in/hr0.0 mm/hr 0.00 in0.0 mm
03:10 PM -7.0°F-21.7°C -10.8°F-23.8°C 83% Calm Calm -- 29.36 in994.2 mb 0.00 in0.0 mm 0.00 in/hr0.0 mm/hr 0.00 in0.0 mm
03:15 PM -7.0°F-21.7°C -10.8°F-23.8°C 83% Calm Calm -- 29.36 in994.2 mb 0.00 in0.0 mm 0.00 in/hr0.0 mm/hr 0.00 in0.0 mm
03:20 PM -7.1°F-21.7°C -10.9°F-23.8°C 83% Calm Calm -- 29.37 in994.6 mb 0.00 in0.0 mm 0.00 in/hr0.0 mm/hr 0.00 in0.0 mm
03:25 PM -7.3°F-21.8°C -11.1°F-23.9°C 83% Calm Calm -- 29.37 in994.6 mb 0.00 in0.0 mm 0.00 in/hr0.0 mm/hr 0.00 in0.0 mm
03:30 PM -7.3°F-21.8°C -11.1°F-23.9°C 83% Calm Calm -- 29.37 in994.6 mb 0.00 in0.0 mm 0.00 in/hr0.0 mm/hr 0.00 in0.0 mm
03:35 PM -7.4°F-21.9°C -11.2°F-24.0°C 83% Calm Calm -- 29.37 in994.6 mb 0.00 in0.0 mm 0.00 in/hr0.0 mm/hr 0.00 in0.0 mm
03:40 PM -7.5°F-21.9°C -11.3°F-24.1°C 83% Calm Calm -- 29.37 in994.6 mb 0.00 in0.0 mm 0.00 in/hr0.0 mm/hr 0.00 in0.0 mm
03:45 PM -7.5°F-21.9°C -11.3°F-24.1°C 83% Calm Calm -- 29.37 in994.6 mb 0.00 in0.0 mm 0.00 in/hr0.0 mm/hr 0.00 in0.0 mm
03:50 PM -7.6°F-22.0°C -11.4°F-24.1°C 83% Calm Calm -- 29.37 in994.6 mb 0.00 in0.0 mm 0.00 in/hr0.0 mm/hr 0.00 in0.0 mm
03:55 PM -7.6°F-22.0°C -11.4°F-24.1°C 83% Calm Calm -- 29.38 in994.9 mb 0.00 in0.0 mm 0.00 in/hr0.0 mm/hr 0.00 in0.0 mm
04:00 PM -7.6°F-22.0°C -11.4°F-24.1°C 83% Calm Calm -- 29.37 in994.6 mb 0.00 in0.0 mm 0.00 in/hr0.0 mm/hr 0.00 in0.0 mm
04:05 PM -7.7°F-22.1°C -11.5°F-24.2°C 83% Calm Calm -- 29.37 in994.6 mb 0.00 in0.0 mm 0.00 in/hr0.0 mm/hr 0.00 in0.0 mm
04:10 PM -7.7°F-22.1°C -11.5°F-24.2°C 83% Calm Calm -- 29.38 in994.9 mb 0.00 in0.0 mm 0.00 in/hr0.0 mm/hr 0.00 in0.0 mm
04:15 PM -7.7°F-22.1°C -11.7°F-24.3°C 82% Calm Calm -- 29.38 in994.9 mb 0.00 in0.0 mm 0.00 in/hr0.0 mm/hr 0.00 in0.0 mm
04:20 PM -7.9°F-22.2°C -11.9°F-24.4°C 82% Calm Calm -- 29.38 in994.9 mb 0.00 in0.0 mm 0.00 in/hr0.0 mm/hr 0.00 in0.0 mm
04:25 PM -7.9°F-22.2°C -11.9°F-24.4°C 82% Calm Calm -- 29.38 in994.9 mb 0.00 in0.0 mm 0.00 in/hr0.0 mm/hr 0.00 in0.0 mm
04:30 PM -7.9°F-22.2°C -11.9°F-24.4°C 82% Calm Calm -- 29.39 in995.3 mb 0.00 in0.0 mm 0.00 in/hr0.0 mm/hr 0.00 in0.0 mm
04:35 PM -8.0°F-22.2°C -11.8°F-24.3°C 83% Calm Calm -- 29.39 in995.3 mb 0.00 in0.0 mm 0.00 in/hr0.0 mm/hr 0.00 in0.0 mm
04:40 PM -7.9°F-22.2°C -11.7°F-24.3°C 83% Calm Calm -- 29.39 in995.3 mb 0.00 in0.0 mm 0.00 in/hr0.0 mm/hr 0.00 in0.0 mm
04:45 PM -7.9°F-22.2°C -11.7°F-24.3°C 83% Calm Calm -- 29.39 in995.3 mb 0.00 in0.0 mm 0.00 in/hr0.0 mm/hr 0.00 in0.0 mm
04:50 PM -7.8°F-22.1°C -11.6°F-24.2°C 83% Calm Calm -- 29.40 in995.6 mb 0.00 in0.0 mm 0.00 in/hr0.0 mm/hr 0.00 in0.0 mm
04:55 PM -7.8°F-22.1°C -11.6°F-24.2°C 83% Calm Calm -- 29.40 in995.6 mb 0.00 in0.0 mm 0.00 in/hr0.0 mm/hr 0.00 in0.0 mm
05:00 PM -7.8°F-22.1°C -11.6°F-24.2°C 83% Calm Calm -- 29.40 in995.6 mb 0.00 in0.0 mm 0.00 in/hr0.0 mm/hr 0.00 in0.0 mm
05:05 PM -7.8°F-22.1°C -11.6°F-24.2°C 83% Calm Calm -- 29.40 in995.6 mb 0.00 in0.0 mm 0.00 in/hr0.0 mm/hr 0.00 in0.0 mm
05:10 PM -7.8°F-22.1°C -11.6°F-24.2°C 83% Calm Calm -- 29.41 in995.9 mb 0.00 in0.0 mm 0.00 in/hr0.0 mm/hr 0.00 in0.0 mm
05:15 PM -7.8°F-22.1°C -11.6°F-24.2°C 83% Calm Calm -- 29.41 in995.9 mb 0.00 in0.0 mm 0.00 in/hr0.0 mm/hr 0.00 in0.0 mm
05:20 PM -7.8°F-22.1°C -11.6°F-24.2°C 83% Calm Calm -- 29.41 in995.9 mb 0.00 in0.0 mm 0.00 in/hr0.0 mm/hr 0.00 in0.0 mm
05:25 PM -7.9°F-22.2°C -11.7°F-24.3°C 83% Calm Calm -- 29.41 in995.9 mb 0.00 in0.0 mm 0.00 in/hr0.0 mm/hr 0.00 in0.0 mm
05:30 PM -7.9°F-22.2°C -11.7°F-24.3°C 83% Calm Calm -- 29.42 in996.3 mb 0.00 in0.0 mm 0.00 in/hr0.0 mm/hr 0.00 in0.0 mm
05:35 PM -7.9°F-22.2°C -11.7°F-24.3°C 83% Calm Calm -- 29.42 in996.3 mb 0.00 in0.0 mm 0.00 in/hr0.0 mm/hr 0.00 in0.0 mm
05:40 PM -7.9°F-22.2°C -11.7°F-24.3°C 83% Calm Calm -- 29.42 in996.3 mb 0.00 in0.0 mm 0.00 in/hr0.0 mm/hr 0.00 in0.0 mm
05:45 PM -7.9°F-22.2°C -11.9°F-24.4°C 82% Calm Calm -- 29.42 in996.3 mb 0.00 in0.0 mm 0.00 in/hr0.0 mm/hr 0.00 in0.0 mm
05:50 PM -8.0°F-22.2°C -12.0°F-24.4°C 82% Calm Calm -- 29.42 in996.3 mb 0.00 in0.0 mm 0.00 in/hr0.0 mm/hr 0.00 in0.0 mm
05:55 PM -8.0°F-22.2°C -11.8°F-24.3°C 83% Calm Calm -- 29.43 in996.6 mb 0.00 in0.0 mm 0.00 in/hr0.0 mm/hr 0.00 in0.0 mm
06:00 PM -8.0°F-22.2°C -11.8°F-24.3°C 83% Calm Calm -- 29.43 in996.6 mb 0.00 in0.0 mm 0.00 in/hr0.0 mm/hr 0.00 in0.0 mm
06:05 PM -8.0°F-22.2°C -11.8°F-24.3°C 83% Calm Calm -- 29.43 in996.6 mb 0.00 in0.0 mm 0.00 in/hr0.0 mm/hr 0.00 in0.0 mm
06:10 PM -8.0°F-22.2°C -11.8°F-24.3°C 83% Calm Calm -- 29.44 in997.0 mb 0.00 in0.0 mm 0.00 in/hr0.0 mm/hr 0.00 in0.0 mm
06:15 PM -8.0°F-22.2°C -11.8°F-24.3°C 83% Calm Calm -- 29.44 in997.0 mb 0.00 in0.0 mm 0.00 in/hr0.0 mm/hr 0.00 in0.0 mm
06:20 PM -8.0°F-22.2°C -11.8°F-24.3°C 83% Calm Calm -- 29.44 in997.0 mb 0.00 in0.0 mm 0.00 in/hr0.0 mm/hr 0.00 in0.0 mm
06:25 PM -8.1°F-22.3°C -11.9°F-24.4°C 83% Calm Calm -- 29.44 in997.0 mb 0.00 in0.0 mm 0.00 in/hr0.0 mm/hr 0.00 in0.0 mm
06:30 PM -8.1°F-22.3°C -11.9°F-24.4°C 83% Calm Calm -- 29.44 in997.0 mb 0.00 in0.0 mm 0.00 in/hr0.0 mm/hr 0.00 in0.0 mm
06:35 PM -8.1°F-22.3°C -11.9°F-24.4°C 83% Calm Calm -- 29.45 in997.3 mb 0.00 in0.0 mm 0.00 in/hr0.0 mm/hr 0.00 in0.0 mm
06:40 PM -8.1°F-22.3°C -11.9°F-24.4°C 83% Calm Calm -- 29.45 in997.3 mb 0.00 in0.0 mm 0.00 in/hr0.0 mm/hr 0.00 in0.0 mm
06:45 PM -8.2°F-22.3°C -12.0°F-24.4°C 83% Calm Calm -- 29.45 in997.3 mb 0.00 in0.0 mm 0.00 in/hr0.0 mm/hr 0.00 in0.0 mm
06:50 PM -8.2°F-22.3°C -12.0°F-24.4°C 83% Calm Calm -- 29.45 in997.3 mb 0.00 in0.0 mm 0.00 in/hr0.0 mm/hr 0.00 in0.0 mm
06:55 PM -8.2°F-22.3°C -12.0°F-24.4°C 83% Calm Calm -- 29.46 in997.6 mb 0.00 in0.0 mm 0.00 in/hr0.0 mm/hr 0.00 in0.0 mm
07:00 PM -8.2°F-22.3°C -12.2°F-24.6°C 82% Calm Calm -- 29.46 in997.6 mb 0.00 in0.0 mm 0.00 in/hr0.0 mm/hr 0.00 in0.0 mm
07:05 PM -8.3°F-22.4°C -12.3°F-24.6°C 82% Calm Calm -- 29.46 in997.6 mb 0.00 in0.0 mm 0.00 in/hr0.0 mm/hr 0.00 in0.0 mm
07:10 PM -8.3°F-22.4°C -12.3°F-24.6°C 82% Calm Calm -- 29.46 in997.6 mb 0.00 in0.0 mm 0.00 in/hr0.0 mm/hr 0.00 in0.0 mm
07:15 PM -8.4°F-22.4°C -12.4°F-24.7°C 82% Calm Calm -- 29.47 in998.0 mb 0.00 in0.0 mm 0.00 in/hr0.0 mm/hr 0.00 in0.0 mm
07:20 PM -8.5°F-22.5°C -12.5°F-24.7°C 82% Calm Calm -- 29.48 in998.3 mb 0.00 in0.0 mm 0.00 in/hr0.0 mm/hr 0.00 in0.0 mm
07:25 PM -8.6°F-22.6°C -12.6°F-24.8°C 82% Calm Calm -- 29.48 in998.3 mb 0.00 in0.0 mm 0.00 in/hr0.0 mm/hr 0.00 in0.0 mm
07:30 PM -8.8°F-22.7°C -12.8°F-24.9°C 82% Calm Calm -- 29.48 in998.3 mb 0.00 in0.0 mm 0.00 in/hr0.0 mm/hr 0.00 in0.0 mm
07:35 PM -8.9°F-22.7°C -12.9°F-24.9°C 82% Calm Calm -- 29.48 in998.3 mb 0.00 in0.0 mm 0.00 in/hr0.0 mm/hr 0.00 in0.0 mm
07:40 PM -9.0°F-22.8°C -13.0°F-25.0°C 82% Calm Calm -- 29.48 in998.3 mb 0.00 in0.0 mm 0.00 in/hr0.0 mm/hr 0.00 in0.0 mm
07:45 PM -9.0°F-22.8°C -13.0°F-25.0°C 82% Calm Calm -- 29.48 in998.3 mb 0.00 in0.0 mm 0.00 in/hr0.0 mm/hr 0.00 in0.0 mm
07:50 PM -9.1°F-22.8°C -13.1°F-25.1°C 82% Calm Calm -- 29.49 in998.6 mb 0.00 in0.0 mm 0.00 in/hr0.0 mm/hr 0.00 in0.0 mm
07:55 PM -9.1°F-22.8°C -13.1°F-25.1°C 82% Calm Calm -- 29.49 in998.6 mb 0.00 in0.0 mm 0.00 in/hr0.0 mm/hr 0.00 in0.0 mm
08:00 PM -9.1°F-22.8°C -13.1°F-25.1°C 82% Calm Calm -- 29.50 in999.0 mb 0.00 in0.0 mm 0.00 in/hr0.0 mm/hr 0.00 in0.0 mm
08:05 PM -9.2°F-22.9°C -13.2°F-25.1°C 82% Calm Calm -- 29.50 in999.0 mb 0.00 in0.0 mm 0.00 in/hr0.0 mm/hr 0.00 in0.0 mm
08:10 PM -9.3°F-22.9°C -13.3°F-25.2°C 82% Calm Calm -- 29.50 in999.0 mb 0.00 in0.0 mm 0.00 in/hr0.0 mm/hr 0.00 in0.0 mm
08:15 PM -9.3°F-22.9°C -13.3°F-25.2°C 82% Calm Calm -- 29.50 in999.0 mb 0.00 in0.0 mm 0.00 in/hr0.0 mm/hr 0.00 in0.0 mm
08:20 PM -9.4°F-23.0°C -13.4°F-25.2°C 82% Calm Calm -- 29.51 in999.3 mb 0.00 in0.0 mm 0.00 in/hr0.0 mm/hr 0.00 in0.0 mm
08:25 PM -9.4°F-23.0°C -13.4°F-25.2°C 82% Calm Calm -- 29.51 in999.3 mb 0.00 in0.0 mm 0.00 in/hr0.0 mm/hr 0.00 in0.0 mm
08:30 PM -9.4°F-23.0°C -13.4°F-25.2°C 82% Calm Calm -- 29.51 in999.3 mb 0.00 in0.0 mm 0.00 in/hr0.0 mm/hr 0.00 in0.0 mm
08:35 PM -9.4°F-23.0°C -13.4°F-25.2°C 82% Calm Calm -- 29.51 in999.3 mb 0.00 in0.0 mm 0.00 in/hr0.0 mm/hr 0.00 in0.0 mm
08:40 PM -9.4°F-23.0°C -13.4°F-25.2°C 82% Calm Calm -- 29.52 in999.7 mb 0.00 in0.0 mm 0.00 in/hr0.0 mm/hr 0.00 in0.0 mm
08:45 PM -9.4°F-23.0°C -13.4°F-25.2°C 82% Calm Calm -- 29.52 in999.7 mb 0.00 in0.0 mm 0.00 in/hr0.0 mm/hr 0.00 in0.0 mm
08:50 PM -9.4°F-23.0°C -13.4°F-25.2°C 82% Calm Calm -- 29.52 in999.7 mb 0.00 in0.0 mm 0.00 in/hr0.0 mm/hr 0.00 in0.0 mm
08:55 PM -9.3°F-22.9°C -13.3°F-25.2°C 82% Calm Calm -- 29.52 in999.7 mb 0.00 in0.0 mm 0.00 in/hr0.0 mm/hr 0.00 in0.0 mm
09:00 PM -9.4°F-23.0°C -13.4°F-25.2°C 82% Calm Calm -- 29.52 in999.7 mb 0.00 in0.0 mm 0.00 in/hr0.0 mm/hr 0.00 in0.0 mm
09:05 PM -9.4°F-23.0°C -13.4°F-25.2°C 82% Calm Calm -- 29.52 in999.7 mb 0.00 in0.0 mm 0.00 in/hr0.0 mm/hr 0.00 in0.0 mm
09:10 PM -9.4°F-23.0°C -13.4°F-25.2°C 82% Calm Calm -- 29.53 in1000.0 mb 0.00 in0.0 mm 0.00 in/hr0.0 mm/hr 0.00 in0.0 mm
09:15 PM -9.4°F-23.0°C -13.4°F-25.2°C 82% Calm Calm -- 29.53 in1000.0 mb 0.00 in0.0 mm 0.00 in/hr0.0 mm/hr 0.00 in0.0 mm
09:20 PM -9.4°F-23.0°C -13.4°F-25.2°C 82% Calm Calm -- 29.53 in1000.0 mb 0.00 in0.0 mm 0.00 in/hr0.0 mm/hr 0.00 in0.0 mm
09:25 PM -9.4°F-23.0°C -13.4°F-25.2°C 82% Calm Calm -- 29.53 in1000.0 mb 0.00 in0.0 mm 0.00 in/hr0.0 mm/hr 0.00 in0.0 mm
09:30 PM -9.5°F-23.1°C -13.5°F-25.3°C 82% Calm Calm -- 29.54 in1000.3 mb 0.00 in0.0 mm 0.00 in/hr0.0 mm/hr 0.00 in0.0 mm
09:35 PM -9.5°F-23.1°C -13.5°F-25.3°C 82% Calm Calm -- 29.54 in1000.3 mb 0.00 in0.0 mm 0.00 in/hr0.0 mm/hr 0.00 in0.0 mm
09:40 PM -9.6°F-23.1°C -13.6°F-25.3°C 82% Calm Calm -- 29.54 in1000.3 mb 0.00 in0.0 mm 0.00 in/hr0.0 mm/hr 0.00 in0.0 mm
09:45 PM -9.6°F-23.1°C -13.6°F-25.3°C 82% Calm Calm -- 29.55 in1000.7 mb 0.00 in0.0 mm 0.00 in/hr0.0 mm/hr 0.00 in0.0 mm
09:50 PM -9.6°F-23.1°C -13.6°F-25.3°C 82% Calm Calm -- 29.55 in1000.7 mb 0.00 in0.0 mm 0.00 in/hr0.0 mm/hr 0.00 in0.0 mm
09:55 PM -9.6°F-23.1°C -13.6°F-25.3°C 82% Calm Calm -- 29.55 in1000.7 mb 0.00 in0.0 mm 0.00 in/hr0.0 mm/hr 0.00 in0.0 mm
10:00 PM -9.7°F-23.2°C -13.7°F-25.4°C 82% Calm Calm -- 29.55 in1000.7 mb 0.00 in0.0 mm 0.00 in/hr0.0 mm/hr 0.00 in0.0 mm
10:05 PM -9.7°F-23.2°C -13.7°F-25.4°C 82% Calm Calm -- 29.55 in1000.7 mb 0.00 in0.0 mm 0.00 in/hr0.0 mm/hr 0.00 in0.0 mm
10:10 PM -9.7°F-23.2°C -13.7°F-25.4°C 82% Calm Calm -- 29.56 in1001.0 mb 0.00 in0.0 mm 0.00 in/hr0.0 mm/hr 0.00 in0.0 mm
10:15 PM -9.7°F-23.2°C -13.7°F-25.4°C 82% Calm Calm -- 29.56 in1001.0 mb 0.00 in0.0 mm 0.00 in/hr0.0 mm/hr 0.00 in0.0 mm
10:20 PM -9.6°F-23.1°C -13.6°F-25.3°C 82% Calm Calm -- 29.56 in1001.0 mb 0.00 in0.0 mm 0.00 in/hr0.0 mm/hr 0.00 in0.0 mm
10:25 PM -9.5°F-23.1°C -13.5°F-25.3°C 82% Calm Calm -- 29.57 in1001.4 mb 0.00 in0.0 mm 0.00 in/hr0.0 mm/hr 0.00 in0.0 mm
10:30 PM -9.5°F-23.1°C -13.5°F-25.3°C 82% Calm Calm -- 29.57 in1001.4 mb 0.00 in0.0 mm 0.00 in/hr0.0 mm/hr 0.00 in0.0 mm
10:35 PM -9.4°F-23.0°C -13.4°F-25.2°C 82% Calm Calm -- 29.57 in1001.4 mb 0.00 in0.0 mm 0.00 in/hr0.0 mm/hr 0.00 in0.0 mm
10:40 PM -9.3°F-22.9°C -13.3°F-25.2°C 82% Calm Calm -- 29.57 in1001.4 mb 0.00 in0.0 mm 0.00 in/hr0.0 mm/hr 0.00 in0.0 mm
10:45 PM -9.3°F-22.9°C -13.3°F-25.2°C 82% Calm Calm -- 29.58 in1001.7 mb 0.00 in0.0 mm 0.00 in/hr0.0 mm/hr 0.00 in0.0 mm
10:50 PM -9.3°F-22.9°C -13.3°F-25.2°C 82% Calm Calm -- 29.58 in1001.7 mb 0.00 in0.0 mm 0.00 in/hr0.0 mm/hr 0.00 in0.0 mm
10:55 PM -9.4°F-23.0°C -13.4°F-25.2°C 82% Calm Calm -- 29.58 in1001.7 mb 0.00 in0.0 mm 0.00 in/hr0.0 mm/hr 0.00 in0.0 mm
11:00 PM -9.3°F-22.9°C -13.3°F-25.2°C 82% Calm Calm -- 29.58 in1001.7 mb 0.00 in0.0 mm 0.00 in/hr0.0 mm/hr 0.00 in0.0 mm
11:05 PM -9.3°F-22.9°C -13.3°F-25.2°C 82% Calm Calm -- 29.59 in1002.0 mb 0.00 in0.0 mm 0.00 in/hr0.0 mm/hr 0.00 in0.0 mm
11:10 PM -9.3°F-22.9°C -13.3°F-25.2°C 82% Calm Calm -- 29.59 in1002.0 mb 0.00 in0.0 mm 0.00 in/hr0.0 mm/hr 0.00 in0.0 mm
11:15 PM -9.3°F-22.9°C -13.3°F-25.2°C 82% Calm Calm -- 29.59 in1002.0 mb 0.00 in0.0 mm 0.00 in/hr0.0 mm/hr 0.00 in0.0 mm
11:20 PM -9.3°F-22.9°C -13.3°F-25.2°C 82% Calm Calm -- 29.59 in1002.0 mb 0.00 in0.0 mm 0.00 in/hr0.0 mm/hr 0.00 in0.0 mm
11:25 PM -9.2°F-22.9°C -13.2°F-25.1°C 82% Calm Calm -- 29.60 in1002.4 mb 0.00 in0.0 mm 0.00 in/hr0.0 mm/hr 0.00 in0.0 mm
11:30 PM -9.2°F-22.9°C -13.2°F-25.1°C 82% Calm Calm -- 29.60 in1002.4 mb 0.00 in0.0 mm 0.00 in/hr0.0 mm/hr 0.00 in0.0 mm
11:35 PM -9.1°F-22.8°C -12.9°F-24.9°C 83% Calm Calm -- 29.60 in1002.4 mb 0.00 in0.0 mm 0.00 in/hr0.0 mm/hr 0.00 in0.0 mm
11:40 PM -9.1°F-22.8°C -12.9°F-24.9°C 83% Calm Calm -- 29.60 in1002.4 mb 0.00 in0.0 mm 0.00 in/hr0.0 mm/hr 0.00 in0.0 mm
11:45 PM -9.0°F-22.8°C -12.8°F-24.9°C 83% Calm Calm -- 29.60 in1002.4 mb 0.00 in0.0 mm 0.00 in/hr0.0 mm/hr 0.00 in0.0 mm
11:50 PM -8.9°F-22.7°C -12.7°F-24.8°C 83% Calm Calm -- 29.61 in1002.7 mb 0.00 in0.0 mm 0.00 in/hr0.0 mm/hr 0.00 in0.0 mm
11:55 PM -8.8°F-22.7°C -12.6°F-24.8°C 83% Calm Calm -- 29.61 in1002.7 mb 0.00 in0.0 mm 0.00 in/hr0.0 mm/hr 0.00 in0.0 mm